메인 페이지
METAR-TAF:

METAR-TAF

공항 :

팔라우 국제공항

코로르, 바벨다오브 섬, 팔라우

위도: 07-22N, 경도: 134-32E, 고도: 54m

현재 날씨관측

예보는 30분 전, 14:50시(UTC)에 발표되었습니다.
북동6kt
온도 25°C
습도 100%
기압 1010 hPa
시정: 11.3km
고도 1500ft 상공 구름 많음, 적란운.
고도 11000ft 상공 흐림
약한비

METAR: PTRO 261450Z 05006KT 7SM -RA BKN015CB OVC110 25/25 A2983 RMK CB ALQDS AND OHD

시각: 00:20 (15:20 UTC)

예보

예보는 3 시간 59분 전, 11:21시(UTC)에 발표되었습니다.
예보 대상 시간: 26일 12시부터 27일 12시까지 (UTC)
동북동8kt
시정: 10km
고도 1500ft 상공 구름 보통
고도 25000ft 상공 구름 많음
시계 내 소나기
일시적
26일 12시부터 26일 15시까지 (UTC)
시정: 9.7km
고도 1500ft 상공 구름 많음
약한소나기,

TAF: PTRO 261121Z 2612/2712 07008KT P6SM VCSH SCT015 BKN250 TEMPO 2612/2615 6SM -SHRA BKN015

4,000개 이상의 공항 관측 자료 및 예보 (METAR 및 TAF 보고).

지도상에서 검색 가능한 기상관측소가 노란 점과 빨간 점으로 표시되어 있습니다.

기상관측소 명을 보려면 표시 위로 마우스를 이동하세요.

날씨 관측과 예보를 보려면 클릭하세요.

지도 변경 : 확대하려면 엑스 표시가 있는 녹색 버튼, 축소하려면 빼기 표시가 있는 녹색 버튼, 다음 페이지의 지도를 보려면 녹색 화살표를 클릭하세요.


METAR-TAF: